createdAt,value
2022-08-10T00:01:17.077Z,14.75
2022-08-10T00:04:04.392Z,14.71
2022-08-10T00:06:54.042Z,14.63
2022-08-10T00:09:50.964Z,14.56
2022-08-10T00:12:54.761Z,14.45
2022-08-10T00:15:52.353Z,14.53
2022-08-10T00:18:40.825Z,14.48
2022-08-10T00:21:27.589Z,14.39
2022-08-10T00:24:16.277Z,14.32
2022-08-10T00:27:52.570Z,14.26
2022-08-10T00:30:10.263Z,14.19
2022-08-10T00:32:57.143Z,14.23
2022-08-10T00:36:08.988Z,14.19
2022-08-10T00:38:55.667Z,14.11
2022-08-10T00:41:43.740Z,13.99
2022-08-10T00:44:30.567Z,14.01
2022-08-10T00:47:36.499Z,13.89
2022-08-10T00:50:24.427Z,13.95
2022-08-10T00:53:11.102Z,13.88
2022-08-10T00:56:35.088Z,13.93
2022-08-10T00:59:06.174Z,13.89
2022-08-10T01:02:08.315Z,13.92
2022-08-10T01:04:59.815Z,13.88
2022-08-10T01:08:11.942Z,13.86
2022-08-10T01:11:06.324Z,13.76
2022-08-10T01:14:22.786Z,13.71
2022-08-10T01:17:14.479Z,13.67
2022-08-10T01:20:07.719Z,13.64
2022-08-10T01:23:26.845Z,13.60
2022-08-10T01:26:58.833Z,13.52
2022-08-10T01:29:56.619Z,13.53
2022-08-10T01:32:58.980Z,13.60
2022-08-10T01:35:53.162Z,13.63
2022-08-10T01:38:45.842Z,13.52
2022-08-10T01:41:47.000Z,13.50
2022-08-10T01:44:37.870Z,13.36
2022-08-10T01:47:48.710Z,13.24
2022-08-10T01:50:53.251Z,13.19
2022-08-10T01:53:52.210Z,13.09
2022-08-10T01:56:43.476Z,13.01
2022-08-10T01:59:34.958Z,13.03
2022-08-10T02:02:22.518Z,12.98
2022-08-10T02:05:11.626Z,12.84
2022-08-10T02:08:00.865Z,12.93
2022-08-10T02:10:49.695Z,12.98
2022-08-10T02:13:37.525Z,12.89
2022-08-10T02:16:26.327Z,12.81
2022-08-10T02:19:16.137Z,12.79
2022-08-10T02:22:35.704Z,12.73
2022-08-10T02:25:41.538Z,12.68
2022-08-10T02:28:29.361Z,12.57
2022-08-10T02:31:23.120Z,12.53
2022-08-10T02:34:12.684Z,12.40
2022-08-10T02:37:02.380Z,12.31
2022-08-10T02:39:58.960Z,12.27
2022-08-10T02:45:22.691Z,12.26
2022-08-10T02:46:04.707Z,12.30
2022-08-10T02:48:59.440Z,12.27
2022-08-10T02:52:07.614Z,12.20
2022-08-10T02:55:06.193Z,12.09
2022-08-10T02:58:13.447Z,11.98
2022-08-10T03:01:08.418Z,11.91
2022-08-10T03:04:01.959Z,11.84
2022-08-10T03:06:55.713Z,11.78
2022-08-10T03:09:44.304Z,11.73
2022-08-10T03:12:37.329Z,11.67
2022-08-10T03:15:28.464Z,11.62
2022-08-10T03:18:16.308Z,11.67
2022-08-10T03:21:03.761Z,11.76
2022-08-10T03:23:52.687Z,11.79
2022-08-10T03:26:40.224Z,11.75
2022-08-10T03:29:30.127Z,11.61
2022-08-10T03:32:37.317Z,11.57
2022-08-10T03:35:25.058Z,11.49
2022-08-10T03:38:11.980Z,11.45
2022-08-10T03:41:03.083Z,11.41
2022-08-10T03:43:51.400Z,11.38
2022-08-10T03:46:42.809Z,11.37
2022-08-10T03:49:32.082Z,11.36
2022-08-10T03:52:19.972Z,11.37
2022-08-10T03:55:08.180Z,11.50
2022-08-10T03:57:55.083Z,11.53
2022-08-10T04:00:42.577Z,11.49
2022-08-10T04:03:30.745Z,11.41
2022-08-10T04:06:17.885Z,11.52
2022-08-10T04:09:06.095Z,11.50
2022-08-10T04:11:52.546Z,11.50
2022-08-10T04:14:51.350Z,11.58
2022-08-10T04:18:04.480Z,11.58
2022-08-10T04:20:51.738Z,11.57
2022-08-10T04:23:42.343Z,11.61
2022-08-10T04:26:29.523Z,11.67
2022-08-10T04:29:16.439Z,11.83
2022-08-10T04:32:04.933Z,12.00
2022-08-10T04:34:53.732Z,12.18
2022-08-10T04:37:47.339Z,12.56
2022-08-10T04:40:34.439Z,12.77
2022-08-10T04:43:21.498Z,13.01
2022-08-10T04:46:42.461Z,13.31
2022-08-10T04:49:54.554Z,13.55
2022-08-10T04:52:21.973Z,13.58
2022-08-10T04:55:13.502Z,13.69
2022-08-10T04:58:01.969Z,13.87
2022-08-10T05:00:48.997Z,13.84
2022-08-10T05:03:35.691Z,13.78
2022-08-10T05:06:42.213Z,13.77
2022-08-10T05:09:29.115Z,14.12
2022-08-10T05:12:17.261Z,15.10
2022-08-10T05:15:04.057Z,15.89
2022-08-10T05:18:08.872Z,16.45
2022-08-10T05:20:56.255Z,17.04
2022-08-10T05:23:43.054Z,17.11
2022-08-10T05:26:29.940Z,17.02
2022-08-10T05:29:18.030Z,17.17
2022-08-10T05:32:05.526Z,17.10
2022-08-10T05:34:52.130Z,16.97
2022-08-10T05:38:13.035Z,16.83
2022-08-10T05:40:47.824Z,16.91
2022-08-10T05:43:35.252Z,16.95
2022-08-10T05:46:23.448Z,17.12
2022-08-10T05:49:10.353Z,17.31
2022-08-10T05:51:57.368Z,17.52
2022-08-10T05:54:44.285Z,17.55
2022-08-10T05:57:31.077Z,17.69
2022-08-10T06:00:37.272Z,18.09
2022-08-10T06:03:30.984Z,18.24
2022-08-10T06:06:24.830Z,18.51
2022-08-10T06:09:16.552Z,18.48
2022-08-10T06:12:24.214Z,18.43
2022-08-10T06:15:21.568Z,18.22
2022-08-10T06:18:26.554Z,18.32
2022-08-10T06:21:14.599Z,18.33
2022-08-10T06:24:03.253Z,18.38
2022-08-10T06:26:49.929Z,18.48
2022-08-10T06:29:38.774Z,18.73
2022-08-10T06:32:28.682Z,18.93
2022-08-10T06:35:18.661Z,19.08
2022-08-10T06:38:07.544Z,19.11
2022-08-10T06:40:58.170Z,19.11
2022-08-10T06:43:48.991Z,19.26
2022-08-10T06:46:38.937Z,19.29
2022-08-10T06:49:25.311Z,19.39
2022-08-10T06:52:18.482Z,19.24
2022-08-10T06:55:09.341Z,19.44
2022-08-10T06:58:00.571Z,19.45
2022-08-10T07:00:49.924Z,19.72
2022-08-10T07:03:44.848Z,19.82
2022-08-10T07:06:35.879Z,19.87
2022-08-10T07:09:27.091Z,19.82
2022-08-10T07:12:18.353Z,19.94
2022-08-10T07:15:11.088Z,20.00
2022-08-10T07:18:00.243Z,20.29
2022-08-10T07:20:48.728Z,20.12
2022-08-10T07:23:57.700Z,20.27
2022-08-10T07:26:49.005Z,20.28
2022-08-10T07:29:53.486Z,20.27
2022-08-10T07:32:44.181Z,20.34
2022-08-10T07:35:42.713Z,20.23
2022-08-10T07:38:32.936Z,20.28
2022-08-10T07:41:23.460Z,20.30
2022-08-10T07:44:12.877Z,20.16
2022-08-10T07:47:04.037Z,20.14
2022-08-10T07:49:53.215Z,20.05
2022-08-10T07:52:41.112Z,20.25
2022-08-10T07:56:10.182Z,20.28
2022-08-10T07:58:39.539Z,20.49
2022-08-10T08:01:37.301Z,20.94
2022-08-10T08:04:26.556Z,21.05
2022-08-10T08:07:17.325Z,21.06
2022-08-10T08:10:09.810Z,21.32
2022-08-10T08:12:58.027Z,21.59
2022-08-10T08:16:20.239Z,21.77
2022-08-10T08:19:26.394Z,21.74
2022-08-10T08:24:07.521Z,21.85
2022-08-10T08:25:14.483Z,21.99
2022-08-10T08:28:03.034Z,22.04
2022-08-10T08:30:50.730Z,22.19
2022-08-10T08:33:42.215Z,22.40
2022-08-10T08:36:32.949Z,22.55
2022-08-10T08:39:19.646Z,22.62
2022-08-10T08:42:28.816Z,22.69
2022-08-10T08:45:25.341Z,22.84
2022-08-10T08:48:32.199Z,23.04
2022-08-10T08:52:07.272Z,23.14
2022-08-10T08:54:49.562Z,23.40
2022-08-10T08:57:49.464Z,23.52
2022-08-10T09:00:44.935Z,23.74
2022-08-10T09:03:52.815Z,23.75
2022-08-10T09:07:07.448Z,23.89
2022-08-10T09:10:25.561Z,24.08
2022-08-10T09:13:26.697Z,24.23
2022-08-10T09:16:25.481Z,24.21
2022-08-10T09:19:34.651Z,24.28
2022-08-10T09:22:32.621Z,24.36
2022-08-10T09:25:24.077Z,24.46
2022-08-10T09:28:17.936Z,24.74
2022-08-10T09:31:22.077Z,24.87
2022-08-10T09:36:23.869Z,24.74
2022-08-10T09:38:01.009Z,24.61
2022-08-10T09:40:59.627Z,24.82
2022-08-10T09:43:57.686Z,24.97
2022-08-10T09:47:13.306Z,24.94
2022-08-10T09:50:08.704Z,24.93
2022-08-10T09:53:07.984Z,24.83
2022-08-10T09:56:18.966Z,24.97
2022-08-10T09:59:27.233Z,25.06
2022-08-10T10:02:37.169Z,25.27
2022-08-10T10:05:52.215Z,25.40
2022-08-10T10:08:45.937Z,25.03
2022-08-10T10:11:54.444Z,24.56
2022-08-10T10:15:10.941Z,24.33
2022-08-10T10:18:23.379Z,24.11
2022-08-10T10:21:24.087Z,24.10
2022-08-10T10:24:31.275Z,24.53
2022-08-10T10:27:33.342Z,24.93
2022-08-10T10:30:21.273Z,25.16
2022-08-10T10:33:16.131Z,25.33
2022-08-10T10:36:05.313Z,25.49
2022-08-10T10:38:54.553Z,25.45
2022-08-10T10:42:03.637Z,25.49
2022-08-10T10:45:04.606Z,25.35
2022-08-10T10:48:00.904Z,25.36
2022-08-10T10:50:58.885Z,25.45
2022-08-10T10:53:51.223Z,25.57
2022-08-10T10:56:50.193Z,25.71
2022-08-10T10:59:56.313Z,25.59
2022-08-10T11:02:58.218Z,25.84
2022-08-10T11:05:51.201Z,25.88
2022-08-10T11:08:41.849Z,25.87
2022-08-10T11:12:01.737Z,26.22
2022-08-10T11:14:54.203Z,26.30
2022-08-10T11:17:47.297Z,26.26
2022-08-10T11:20:43.472Z,26.06
2022-08-10T11:23:36.246Z,25.83
2022-08-10T11:26:29.828Z,25.88
2022-08-10T11:29:23.895Z,25.45
2022-08-10T11:32:20.599Z,25.34
2022-08-10T11:35:19.772Z,25.44
2022-08-10T11:38:29.640Z,25.67
2022-08-10T11:42:09.452Z,26.11
2022-08-10T11:44:48.045Z,26.12
2022-08-10T11:47:40.394Z,26.48
2022-08-10T11:50:32.419Z,26.47
2022-08-10T11:53:28.028Z,26.60
2022-08-10T11:56:29.835Z,26.54
2022-08-10T11:59:36.438Z,26.83
2022-08-10T12:02:26.293Z,26.73
2022-08-10T12:05:19.004Z,26.78
2022-08-10T12:10:03.078Z,26.89
2022-08-10T12:11:24.301Z,26.83
2022-08-10T12:14:21.895Z,26.54
2022-08-10T12:17:14.755Z,26.47
2022-08-10T12:20:08.032Z,26.39
2022-08-10T12:22:58.917Z,26.40
2022-08-10T12:25:56.014Z,26.41
2022-08-10T12:28:55.227Z,26.63
2022-08-10T12:31:46.827Z,26.85
2022-08-10T12:34:44.090Z,26.80
2022-08-10T12:37:39.713Z,26.96
2022-08-10T12:40:35.754Z,27.08
2022-08-10T12:44:07.585Z,27.08
2022-08-10T12:47:14.056Z,27.34
2022-08-10T12:50:30.876Z,27.34
2022-08-10T12:53:25.020Z,27.24
2022-08-10T12:56:11.944Z,27.30
2022-08-10T12:59:01.670Z,27.26
2022-08-10T13:02:09.491Z,27.18
2022-08-10T13:05:02.183Z,27.22
2022-08-10T13:08:26.642Z,27.23
2022-08-10T13:12:36.915Z,27.22
2022-08-10T13:14:31.438Z,27.21
2022-08-10T13:17:24.263Z,27.04
2022-08-10T13:20:27.472Z,27.13
2022-08-10T13:23:17.189Z,27.19
2022-08-10T13:26:04.866Z,27.42
2022-08-10T13:28:55.328Z,27.49
2022-08-10T13:32:35.001Z,27.40
2022-08-10T13:35:24.861Z,27.34
2022-08-10T13:38:16.299Z,27.58
2022-08-10T13:41:04.230Z,27.70
2022-08-10T13:43:53.493Z,27.35
2022-08-10T13:46:42.444Z,27.39
2022-08-10T13:49:31.811Z,27.47
2022-08-10T13:52:23.949Z,27.38
2022-08-10T13:55:13.474Z,27.29
2022-08-10T13:58:03.696Z,27.29
2022-08-10T14:00:50.946Z,27.19
2022-08-10T14:03:40.226Z,27.31
2022-08-10T14:06:29.498Z,27.40
2022-08-10T14:09:19.035Z,27.37
2022-08-10T14:12:07.656Z,27.64
2022-08-10T14:14:55.929Z,27.59
2022-08-10T14:17:45.077Z,27.67
2022-08-10T14:20:35.035Z,27.35
2022-08-10T14:23:22.184Z,27.47
2022-08-10T14:26:16.072Z,27.72
2022-08-10T14:29:06.563Z,27.61
2022-08-10T14:32:00.507Z,27.57
2022-08-10T14:36:16.443Z,27.47
2022-08-10T14:38:01.309Z,27.53
2022-08-10T14:40:53.838Z,27.27
2022-08-10T14:43:43.186Z,27.42
2022-08-10T14:46:30.975Z,27.46
2022-08-10T14:49:25.451Z,27.53
2022-08-10T14:52:14.949Z,27.50
2022-08-10T14:55:05.842Z,27.54
2022-08-10T14:58:20.221Z,27.82
2022-08-10T15:01:09.634Z,27.95
2022-08-10T15:04:01.929Z,27.94
2022-08-10T15:06:54.135Z,27.85
2022-08-10T15:09:59.870Z,27.77
2022-08-10T15:12:49.441Z,27.72
2022-08-10T15:16:01.974Z,27.63
2022-08-10T15:18:58.331Z,27.59
2022-08-10T15:21:47.115Z,27.51
2022-08-10T15:25:04.073Z,27.60
2022-08-10T15:27:56.123Z,27.39
2022-08-10T15:30:44.929Z,27.17
2022-08-10T15:34:04.190Z,27.25
2022-08-10T15:37:40.133Z,27.28
2022-08-10T15:40:30.866Z,27.24
2022-08-10T15:43:25.752Z,27.49
2022-08-10T15:46:17.304Z,27.57
2022-08-10T15:49:10.957Z,27.51
2022-08-10T15:52:04.963Z,27.40
2022-08-10T15:54:57.931Z,27.27
2022-08-10T15:57:49.672Z,27.18
2022-08-10T16:00:41.342Z,27.14
2022-08-10T16:03:33.971Z,27.24
2022-08-10T16:06:29.101Z,27.35
2022-08-10T16:10:10.888Z,27.23
2022-08-10T16:12:34.059Z,27.16
2022-08-10T16:15:24.143Z,27.06
2022-08-10T16:18:14.456Z,26.88
2022-08-10T16:21:03.515Z,26.82
2022-08-10T16:24:15.418Z,26.80
2022-08-10T16:27:11.260Z,26.57
2022-08-10T16:30:06.823Z,26.41
2022-08-10T16:32:54.145Z,26.04
2022-08-10T16:35:48.169Z,25.60
2022-08-10T16:38:42.813Z,25.40
2022-08-10T16:42:03.124Z,25.13
2022-08-10T16:44:51.489Z,25.00
2022-08-10T16:47:48.012Z,24.79
2022-08-10T16:50:43.185Z,24.68
2022-08-10T16:53:32.115Z,24.59
2022-08-10T16:56:25.248Z,24.38
2022-08-10T16:59:29.516Z,24.22
2022-08-10T17:02:24.195Z,24.19
2022-08-10T17:05:14.452Z,24.22
2022-08-10T17:08:23.046Z,24.10
2022-08-10T17:11:11.481Z,24.07
2022-08-10T17:14:03.002Z,24.18
2022-08-10T17:16:56.533Z,24.05
2022-08-10T17:19:46.167Z,23.96
2022-08-10T17:22:38.084Z,23.85
2022-08-10T17:25:48.574Z,23.67
2022-08-10T17:28:39.988Z,23.74
2022-08-10T17:31:54.008Z,23.63
2022-08-10T17:34:45.616Z,23.63
2022-08-10T17:37:37.604Z,23.52
2022-08-10T17:40:25.588Z,23.47
2022-08-10T17:43:13.393Z,23.37
2022-08-10T17:46:25.064Z,23.24
2022-08-10T17:49:13.566Z,23.13
2022-08-10T17:52:02.769Z,23.02
2022-08-10T17:54:58.517Z,22.95
2022-08-10T17:57:47.165Z,22.84
2022-08-10T18:00:51.581Z,22.74
2022-08-10T18:03:44.358Z,22.68
2022-08-10T18:06:32.284Z,22.61
2022-08-10T18:09:26.049Z,22.50
2022-08-10T18:12:18.386Z,22.41
2022-08-10T18:15:13.724Z,22.31
2022-08-10T18:18:03.604Z,22.21
2022-08-10T18:20:53.195Z,22.10
2022-08-10T18:23:42.913Z,22.03
2022-08-10T18:26:42.959Z,21.89
2022-08-10T18:29:32.426Z,21.81
2022-08-10T18:32:21.754Z,21.79
2022-08-10T18:35:10.324Z,21.73
2022-08-10T18:38:02.479Z,21.62
2022-08-10T18:40:54.366Z,21.51
2022-08-10T18:44:05.924Z,21.41
2022-08-10T18:46:57.209Z,21.35
2022-08-10T18:50:02.300Z,21.20
2022-08-10T18:52:53.954Z,21.11
2022-08-10T18:56:09.643Z,21.10
2022-08-10T18:59:02.734Z,20.91
2022-08-10T19:02:08.479Z,20.77
2022-08-10T19:05:31.156Z,20.74
2022-08-10T19:08:49.145Z,20.90
2022-08-10T19:12:02.252Z,20.89
2022-08-10T19:14:58.321Z,21.04
2022-08-10T19:18:01.248Z,21.06
2022-08-10T19:20:58.883Z,20.95
2022-08-10T19:23:58.928Z,20.93
2022-08-10T19:27:03.038Z,20.77
2022-08-10T19:30:11.208Z,20.98
2022-08-10T19:33:21.898Z,21.26
2022-08-10T19:36:18.520Z,21.40
2022-08-10T19:39:26.647Z,21.57
2022-08-10T19:42:20.947Z,21.53
2022-08-10T19:45:56.243Z,21.54
2022-08-10T19:48:42.364Z,21.55
2022-08-10T19:51:44.345Z,21.31
2022-08-10T19:54:45.436Z,21.22
2022-08-10T19:57:45.614Z,21.14
2022-08-10T20:00:43.030Z,21.22
2022-08-10T20:03:41.656Z,21.17
2022-08-10T20:06:33.301Z,21.06
2022-08-10T20:09:29.783Z,21.19
2022-08-10T20:12:24.363Z,20.98
2022-08-10T20:15:20.111Z,20.83
2022-08-10T20:18:13.033Z,20.77
2022-08-10T20:21:07.167Z,20.79
2022-08-10T20:23:57.510Z,20.69
2022-08-10T20:26:47.901Z,20.51
2022-08-10T20:29:58.739Z,20.49
2022-08-10T20:32:50.654Z,20.29
2022-08-10T20:35:48.781Z,20.28
2022-08-10T20:38:43.094Z,20.22
2022-08-10T20:41:46.055Z,20.06
2022-08-10T20:44:50.767Z,20.18
2022-08-10T20:47:54.199Z,20.15
2022-08-10T20:50:46.533Z,20.23
2022-08-10T20:53:43.667Z,20.07
2022-08-10T20:56:43.336Z,20.01
2022-08-10T21:00:02.511Z,19.84
2022-08-10T21:03:06.854Z,19.68
2022-08-10T21:06:04.995Z,19.57
2022-08-10T21:09:00.901Z,19.69
2022-08-10T21:12:05.825Z,19.67
2022-08-10T21:15:09.123Z,19.50
2022-08-10T21:18:27.143Z,19.49
2022-08-10T21:21:41.818Z,19.30
2022-08-10T21:24:44.092Z,19.27
2022-08-10T21:28:04.668Z,19.12
2022-08-10T21:31:14.195Z,18.96
2022-08-10T21:34:19.341Z,18.80
2022-08-10T21:37:23.164Z,18.73
2022-08-10T21:41:17.140Z,18.60
2022-08-10T21:44:25.455Z,18.47
2022-08-10T21:48:06.630Z,18.39
2022-08-10T21:51:24.023Z,18.23
2022-08-10T21:54:37.575Z,18.10
2022-08-10T21:57:49.372Z,17.99
2022-08-10T22:00:59.283Z,17.95
2022-08-10T22:04:07.202Z,17.82
2022-08-10T22:07:17.147Z,17.68
2022-08-10T22:10:25.621Z,17.60
2022-08-10T22:13:36.501Z,17.55
2022-08-10T22:16:49.660Z,17.47
2022-08-10T22:20:00.144Z,17.40
2022-08-10T22:23:19.152Z,17.35
2022-08-10T22:26:37.754Z,17.24
2022-08-10T22:29:56.687Z,16.97
2022-08-10T22:33:16.989Z,17.18
2022-08-10T22:36:46.345Z,17.12
2022-08-10T22:40:14.338Z,17.07
2022-08-10T22:43:35.891Z,16.98
2022-08-10T22:46:46.117Z,16.95
2022-08-10T22:49:31.916Z,16.84
2022-08-10T22:52:22.546Z,16.86
2022-08-10T22:55:33.537Z,16.79
2022-08-10T22:58:38.229Z,16.76
2022-08-10T23:02:07.065Z,16.66
2022-08-10T23:04:53.808Z,16.42
2022-08-10T23:07:48.242Z,16.49
2022-08-10T23:10:40.551Z,16.47
2022-08-10T23:13:36.235Z,16.37
2022-08-10T23:16:46.436Z,16.17
2022-08-10T23:19:36.123Z,16.21
2022-08-10T23:22:35.156Z,16.24
2022-08-10T23:25:29.996Z,16.15
2022-08-10T23:28:19.936Z,16.17
2022-08-10T23:31:59.210Z,16.10
2022-08-10T23:34:37.233Z,16.06
2022-08-10T23:37:29.537Z,15.97
2022-08-10T23:40:18.992Z,15.92
2022-08-10T23:43:07.243Z,15.86
2022-08-10T23:45:56.472Z,15.81
2022-08-10T23:48:46.764Z,15.81
2022-08-10T23:51:54.736Z,15.80
2022-08-10T23:54:49.848Z,15.81
2022-08-10T23:57:42.573Z,15.76
